MMTC/TRC METAR and TAF weather

Enter ICAO airport designator
Station Type Date Time Source
MMTC METAR 2021/03/05 02:49 UTC NOAA

MMTC 050249Z 00000KT 10SM BKN100 BKN200 25/M02 A3001 RMK SLP082 52007 974 8/072


Station Type Date Time Source
MMTC Decoded METAR 2021/03/05 02:49 UTC NOAA

Torreon, Coah., Mexico (MMTC) 25-32N 103-27W 1150M
Mar 04, 2021 - 09:49 PM EST / 2021.03.05 0249 UTC
Wind: Calm:0
Visibility: 10 mile(s):0
Sky conditions: mostly cloudy
Temperature: 77 F (25 C)
Dew Point: 28 F (-2 C)
Relative Humidity: 16%
Pressure (altimeter): 30.01 in. Hg (1016 hPa)
Pressure tendency: 0.02 inches (0.7 hPa) higher than three hours ago
ob: MMTC 050249Z 00000KT 10SM BKN100 BKN200 25/M02 A3001 RMK SLP082 52007 974 8/072
cycle: 3

Station Type Date Time Source
MMTC TAF 2021/03/05 06:28 UTC NOAA

TAF MMTC 050521Z 0506/0606 00000KT P6SM BKN250
FM051800 34007KT P6SM BKN100 BKN250
FM060500 00000KT P6SM SCT250

Example: see airport list